sensor_id;sensor_type;location;lat;lon;timestamp;pressure;altitude;pressure_sealevel;temperature;humidity
13033;BME280;6583;42.632;23.298;2023-10-19T00:00:04;70757.06;;;-146.40;78.31
13033;BME280;6583;42.632;23.298;2023-10-19T00:03:00;70757.06;;;-146.40;77.07
13033;BME280;6583;42.632;23.298;2023-10-19T00:05:28;70789.44;;;-146.40;76.57
13033;BME280;6583;42.632;23.298;2023-10-19T00:07:55;70809.66;;;-146.40;77.77
13033;BME280;6583;42.632;23.298;2023-10-19T00:10:22;70829.91;;;-146.40;79.22
13033;BME280;6583;42.632;23.298;2023-10-19T00:12:50;70823.81;;;-146.40;80.82
13033;BME280;6583;42.632;23.298;2023-10-19T00:15:25;70813.72;;;-146.40;81.99
13033;BME280;6583;42.632;23.298;2023-10-19T00:17:55;70805.63;;;-146.40;82.16
13033;BME280;6583;42.632;23.298;2023-10-19T00:20:23;70811.69;;;-146.40;80.38
13033;BME280;6583;42.632;23.298;2023-10-19T00:23:03;70827.88;;;-146.40;79.58
13033;BME280;6583;42.632;23.298;2023-10-19T00:25:31;70842.03;;;-146.40;79.28
13033;BME280;6583;42.632;23.298;2023-10-19T00:27:58;70831.91;;;-146.40;79.27
13033;BME280;6583;42.632;23.298;2023-10-19T00:30:26;70819.78;;;-146.40;79.42
13033;BME280;6583;42.632;23.298;2023-10-19T00:32:56;70813.72;;;-146.40;79.19
13033;BME280;6583;42.632;23.298;2023-10-19T00:35:23;70829.91;;;-146.40;80.05
13033;BME280;6583;42.632;23.298;2023-10-19T00:37:59;70817.75;;;-146.40;80.20
13033;BME280;6583;42.632;23.298;2023-10-19T00:40:50;70813.72;;;-146.40;80.79
13033;BME280;6583;42.632;23.298;2023-10-19T00:43:26;70793.47;;;-146.40;80.86
13033;BME280;6583;42.632;23.298;2023-10-19T00:45:54;70781.34;;;-146.40;80.85
13033;BME280;6583;42.632;23.298;2023-10-19T00:48:21;70763.13;;;-146.40;79.73
13033;BME280;6583;42.632;23.298;2023-10-19T00:50:53;70750.97;;;-146.40;78.66
13033;BME280;6583;42.632;23.298;2023-10-19T00:53:33;70753.00;;;-146.40;76.88
13033;BME280;6583;42.632;23.298;2023-10-19T00:56:01;70769.19;;;-146.40;77.14
13033;BME280;6583;42.632;23.298;2023-10-19T00:58:31;70777.28;;;-146.40;78.45
13033;BME280;6583;42.632;23.298;2023-10-19T01:01:02;70773.25;;;-146.40;78.64
13033;BME280;6583;42.632;23.298;2023-10-19T01:03:31;70781.34;;;-146.40;77.99
13033;BME280;6583;42.632;23.298;2023-10-19T01:06:04;70789.44;;;-146.40;78.51
13033;BME280;6583;42.632;23.298;2023-10-19T01:08:36;70773.25;;;-146.40;79.48
13033;BME280;6583;42.632;23.298;2023-10-19T01:11:08;70765.16;;;-146.40;79.52
13033;BME280;6583;42.632;23.298;2023-10-19T01:13:36;70779.31;;;-146.40;76.95
13033;BME280;6583;42.632;23.298;2023-10-19T01:16:03;70825.84;;;-146.40;78.19
13033;BME280;6583;42.632;23.298;2023-10-19T01:18:30;70842.03;;;-146.40;79.23
13033;BME280;6583;42.632;23.298;2023-10-19T01:20:58;70852.16;;;-146.40;81.00
13033;BME280;6583;42.632;23.298;2023-10-19T01:23:29;70850.13;;;-146.40;82.45
13033;BME280;6583;42.632;23.298;2023-10-19T01:25:58;70870.38;;;-146.40;81.89
13033;BME280;6583;42.632;23.298;2023-10-19T01:28:28;70874.41;;;-146.40;82.08
13033;BME280;6583;42.632;23.298;2023-10-19T01:31:08;70868.34;;;-146.40;83.45
13033;BME280;6583;42.632;23.298;2023-10-19T01:33:39;70858.22;;;-146.40;83.76
13033;BME280;6583;42.632;23.298;2023-10-19T01:36:07;70846.09;;;-146.40;83.91
13033;BME280;6583;42.632;23.298;2023-10-19T01:38:39;70827.88;;;-146.40;83.59
13033;BME280;6583;42.632;23.298;2023-10-19T01:41:05;70819.78;;;-146.40;82.76
13033;BME280;6583;42.632;23.298;2023-10-19T01:43:33;70815.72;;;-146.40;82.60
13033;BME280;6583;42.632;23.298;2023-10-19T01:46:00;70805.63;;;-146.40;82.47
13033;BME280;6583;42.632;23.298;2023-10-19T01:48:29;70793.47;;;-146.40;81.86
13033;BME280;6583;42.632;23.298;2023-10-19T01:50:59;70779.31;;;-146.40;81.39
13033;BME280;6583;42.632;23.298;2023-10-19T01:53:29;70793.47;;;-146.40;81.14
13033;BME280;6583;42.632;23.298;2023-10-19T01:55:57;70787.41;;;-146.40;80.01
13033;BME280;6583;42.632;23.298;2023-10-19T01:58:24;70785.38;;;-146.40;80.23
13033;BME280;6583;42.632;23.298;2023-10-19T02:00:50;70775.25;;;-146.40;80.78
13033;BME280;6583;42.632;23.298;2023-10-19T02:03:20;70763.13;;;-146.40;80.53
13033;BME280;6583;42.632;23.298;2023-10-19T02:05:47;70753.00;;;-146.40;80.47
13033;BME280;6583;42.632;23.298;2023-10-19T02:08:15;70761.09;;;-146.40;80.28
13033;BME280;6583;42.632;23.298;2023-10-19T02:10:46;70769.19;;;-146.40;80.58
13033;BME280;6583;42.632;23.298;2023-10-19T02:13:15;70771.22;;;-146.40;80.78
13033;BME280;6583;42.632;23.298;2023-10-19T02:15:43;70765.16;;;-146.40;81.31
13033;BME280;6583;42.632;23.298;2023-10-19T02:18:09;70787.41;;;-146.40;81.82
13033;BME280;6583;42.632;23.298;2023-10-19T02:20:36;70801.56;;;-146.40;82.27
13033;BME280;6583;42.632;23.298;2023-10-19T02:23:06;70813.72;;;-146.40;83.02
13033;BME280;6583;42.632;23.298;2023-10-19T02:25:34;70840.00;;;-146.40;84.81
13033;BME280;6583;42.632;23.298;2023-10-19T02:28:03;70825.84;;;-146.40;85.22
13033;BME280;6583;42.632;23.298;2023-10-19T02:30:33;70819.78;;;-146.40;86.13
13033;BME280;6583;42.632;23.298;2023-10-19T02:33:00;70809.66;;;-146.40;86.31
13033;BME280;6583;42.632;23.298;2023-10-19T02:35:26;70797.53;;;-146.40;86.07
13033;BME280;6583;42.632;23.298;2023-10-19T02:37:53;70789.44;;;-146.40;84.39
13033;BME280;6583;42.632;23.298;2023-10-19T02:40:19;70777.28;;;-146.40;81.90
13033;BME280;6583;42.632;23.298;2023-10-19T02:42:48;70771.22;;;-146.40;81.68
13033;BME280;6583;42.632;23.298;2023-10-19T02:45:15;70767.16;;;-146.40;80.79
13033;BME280;6583;42.632;23.298;2023-10-19T02:47:44;70765.16;;;-146.40;80.13
13033;BME280;6583;42.632;23.298;2023-10-19T02:50:11;70769.19;;;-146.40;80.35
13033;BME280;6583;42.632;23.298;2023-10-19T02:52:40;70801.56;;;-146.40;80.02
13033;BME280;6583;42.632;23.298;2023-10-19T02:55:09;70809.66;;;-146.40;81.11
13033;BME280;6583;42.632;23.298;2023-10-19T02:57:36;70811.69;;;-146.40;81.67
13033;BME280;6583;42.632;23.298;2023-10-19T03:00:05;70809.66;;;-146.40;82.52
13033;BME280;6583;42.632;23.298;2023-10-19T03:02:38;70805.63;;;-146.40;82.35
13033;BME280;6583;42.632;23.298;2023-10-19T03:05:06;70799.53;;;-146.40;80.91
13033;BME280;6583;42.632;23.298;2023-10-19T03:07:39;70807.63;;;-146.40;79.53
13033;BME280;6583;42.632;23.298;2023-10-19T03:10:06;70797.53;;;-146.40;80.00
13033;BME280;6583;42.632;23.298;2023-10-19T03:12:39;70793.47;;;-146.40;80.35
13033;BME280;6583;42.632;23.298;2023-10-19T03:15:06;70777.28;;;-146.40;80.01
13033;BME280;6583;42.632;23.298;2023-10-19T03:17:33;70777.28;;;-146.40;79.01
13033;BME280;6583;42.632;23.298;2023-10-19T03:19:59;70785.38;;;-146.40;78.15
13033;BME280;6583;42.632;23.298;2023-10-19T03:22:27;70787.41;;;-146.40;77.93
13033;BME280;6583;42.632;23.298;2023-10-19T03:24:53;70801.56;;;-146.40;78.43
13033;BME280;6583;42.632;23.298;2023-10-19T03:27:45;70813.72;;;-146.40;78.77
13033;BME280;6583;42.632;23.298;2023-10-19T03:30:11;70817.75;;;-146.40;78.67
13033;BME280;6583;42.632;23.298;2023-10-19T03:32:41;70831.91;;;-146.40;79.42
13033;BME280;6583;42.632;23.298;2023-10-19T03:35:08;70858.22;;;-146.40;79.59
13033;BME280;6583;42.632;23.298;2023-10-19T03:37:41;70856.19;;;-146.40;80.70
13033;BME280;6583;42.632;23.298;2023-10-19T03:40:08;70850.13;;;-146.40;82.30
13033;BME280;6583;42.632;23.298;2023-10-19T03:42:36;70864.28;;;-146.40;80.99
13033;BME280;6583;42.632;23.298;2023-10-19T03:45:07;70880.47;;;-146.40;81.05
13033;BME280;6583;42.632;23.298;2023-10-19T03:47:38;70882.50;;;-146.40;82.47
13033;BME280;6583;42.632;23.298;2023-10-19T03:50:05;70878.47;;;-146.40;83.56
13033;BME280;6583;42.632;23.298;2023-10-19T03:52:35;70878.47;;;-146.40;82.63
13033;BME280;6583;42.632;23.298;2023-10-19T03:55:04;70898.69;;;-146.40;82.37
13033;BME280;6583;42.632;23.298;2023-10-19T03:57:36;70870.38;;;-146.40;82.89
13033;BME280;6583;42.632;23.298;2023-10-19T04:00:07;70848.09;;;-146.40;83.35
13033;BME280;6583;42.632;23.298;2023-10-19T04:02:36;70827.88;;;-146.40;82.76
13033;BME280;6583;42.632;23.298;2023-10-19T04:05:04;70819.78;;;-146.40;81.41
13033;BME280;6583;42.632;23.298;2023-10-19T04:07:34;70817.75;;;-146.40;79.69
13033;BME280;6583;42.632;23.298;2023-10-19T04:10:01;70821.81;;;-146.40;79.35
13033;BME280;6583;42.632;23.298;2023-10-19T04:12:37;70813.72;;;-146.40;79.35
13033;BME280;6583;42.632;23.298;2023-10-19T04:15:08;70823.81;;;-146.40;77.80
13033;BME280;6583;42.632;23.298;2023-10-19T04:17:37;70846.09;;;-146.40;78.04
13033;BME280;6583;42.632;23.298;2023-10-19T04:20:06;70854.19;;;-146.40;78.90
13033;BME280;6583;42.632;23.298;2023-10-19T04:22:47;70846.09;;;-146.40;80.18
13033;BME280;6583;42.632;23.298;2023-10-19T04:25:15;70831.91;;;-146.40;80.78
13033;BME280;6583;42.632;23.298;2023-10-19T04:27:45;70829.91;;;-146.40;80.18
13033;BME280;6583;42.632;23.298;2023-10-19T04:30:13;70829.91;;;-146.40;78.89
13033;BME280;6583;42.632;23.298;2023-10-19T04:32:42;70831.91;;;-146.40;78.67
13033;BME280;6583;42.632;23.298;2023-10-19T04:35:09;70817.75;;;-146.40;78.83
13033;BME280;6583;42.632;23.298;2023-10-19T04:37:36;70811.69;;;-146.40;78.89
13033;BME280;6583;42.632;23.298;2023-10-19T04:40:08;70789.44;;;-146.40;77.96
13033;BME280;6583;42.632;23.298;2023-10-19T04:42:35;70779.31;;;-146.40;77.96
13033;BME280;6583;42.632;23.298;2023-10-19T04:45:05;70769.19;;;-146.40;77.06
13033;BME280;6583;42.632;23.298;2023-10-19T04:47:32;70805.63;;;-146.40;75.06
13033;BME280;6583;42.632;23.298;2023-10-19T04:50:01;70817.75;;;-146.40;75.14
13033;BME280;6583;42.632;23.298;2023-10-19T04:52:27;70799.53;;;-146.40;75.98
13033;BME280;6583;42.632;23.298;2023-10-19T04:54:54;70801.56;;;-146.40;76.42
13033;BME280;6583;42.632;23.298;2023-10-19T04:57:21;70821.81;;;-146.40;75.47
13033;BME280;6583;42.632;23.298;2023-10-19T04:59:47;70825.84;;;-146.40;75.54
13033;BME280;6583;42.632;23.298;2023-10-19T05:02:16;70821.81;;;-146.40;76.50
13033;BME280;6583;42.632;23.298;2023-10-19T05:04:43;70807.63;;;-146.40;77.90
13033;BME280;6583;42.632;23.298;2023-10-19T05:07:10;70793.47;;;-146.40;78.52
13033;BME280;6583;42.632;23.298;2023-10-19T05:09:42;70795.50;;;-146.40;76.76
13033;BME280;6583;42.632;23.298;2023-10-19T05:12:09;70809.66;;;-146.40;75.64
13033;BME280;6583;42.632;23.298;2023-10-19T05:14:36;70831.91;;;-146.40;76.07
13033;BME280;6583;42.632;23.298;2023-10-19T05:17:03;70850.13;;;-146.40;76.71
13033;BME280;6583;42.632;23.298;2023-10-19T05:19:32;70848.09;;;-146.40;79.00
13033;BME280;6583;42.632;23.298;2023-10-19T05:21:59;70838.00;;;-146.40;79.54
13033;BME280;6583;42.632;23.298;2023-10-19T05:24:26;70821.81;;;-146.40;79.54
13033;BME280;6583;42.632;23.298;2023-10-19T05:26:53;70819.78;;;-146.40;79.98
13033;BME280;6583;42.632;23.298;2023-10-19T05:29:20;70805.63;;;-146.40;79.34
13033;BME280;6583;42.632;23.298;2023-10-19T05:31:47;70797.53;;;-146.40;78.60
13033;BME280;6583;42.632;23.298;2023-10-19T05:34:19;70801.56;;;-146.40;78.52
13033;BME280;6583;42.632;23.298;2023-10-19T05:36:47;70783.34;;;-146.40;77.95
13033;BME280;6583;42.632;23.298;2023-10-19T05:39:14;70777.28;;;-146.40;78.40
13033;BME280;6583;42.632;23.298;2023-10-19T05:41:41;70785.38;;;-146.40;79.73
13033;BME280;6583;42.632;23.298;2023-10-19T05:44:08;70779.31;;;-146.40;79.58
13033;BME280;6583;42.632;23.298;2023-10-19T05:46:34;70773.25;;;-146.40;80.14
13033;BME280;6583;42.632;23.298;2023-10-19T05:49:01;70773.25;;;-146.40;79.44
13033;BME280;6583;42.632;23.298;2023-10-19T05:51:29;70769.19;;;-146.40;79.40
13033;BME280;6583;42.632;23.298;2023-10-19T05:53:57;70771.22;;;-146.40;80.71
13033;BME280;6583;42.632;23.298;2023-10-19T05:56:28;70757.06;;;-146.40;81.23
13033;BME280;6583;42.632;23.298;2023-10-19T05:58:55;70761.09;;;-146.40;80.13
13033;BME280;6583;42.632;23.298;2023-10-19T06:01:22;70763.13;;;-146.40;81.35
13033;BME280;6583;42.632;23.298;2023-10-19T06:03:49;70753.00;;;-146.40;82.30
13033;BME280;6583;42.632;23.298;2023-10-19T06:06:17;70742.88;;;-146.40;82.36
13033;BME280;6583;42.632;23.298;2023-10-19T06:08:44;70742.88;;;-146.40;83.55
13033;BME280;6583;42.632;23.298;2023-10-19T06:11:13;70734.78;;;-146.40;85.25
13033;BME280;6583;42.632;23.298;2023-10-19T06:13:39;70722.66;;;-146.40;84.71
13033;BME280;6583;42.632;23.298;2023-10-19T06:16:06;70714.56;;;-146.40;85.45
13033;BME280;6583;42.632;23.298;2023-10-19T06:18:33;70714.56;;;-146.40;85.88
13033;BME280;6583;42.632;23.298;2023-10-19T06:20:59;70702.41;;;-146.40;85.90
13033;BME280;6583;42.632;23.298;2023-10-19T06:23:26;70696.34;;;-146.40;85.86
13033;BME280;6583;42.632;23.298;2023-10-19T06:25:53;70700.41;;;-146.40;85.87
13033;BME280;6583;42.632;23.298;2023-10-19T06:28:21;70710.50;;;-146.40;85.45
13033;BME280;6583;42.632;23.298;2023-10-19T06:30:47;70728.72;;;-146.40;86.13
13033;BME280;6583;42.632;23.298;2023-10-19T06:33:15;70726.69;;;-146.40;85.95
13033;BME280;6583;42.632;23.298;2023-10-19T06:35:42;70724.69;;;-146.40;86.42
13033;BME280;6583;42.632;23.298;2023-10-19T06:38:09;70726.69;;;-146.40;86.30
13033;BME280;6583;42.632;23.298;2023-10-19T06:40:35;70728.72;;;-146.40;86.30
13033;BME280;6583;42.632;23.298;2023-10-19T06:43:02;70732.78;;;-146.40;86.79
13033;BME280;6583;42.632;23.298;2023-10-19T06:45:32;70742.88;;;-146.40;86.99
13033;BME280;6583;42.632;23.298;2023-10-19T06:47:58;70740.88;;;-146.40;87.95
13033;BME280;6583;42.632;23.298;2023-10-19T06:50:25;70748.97;;;-146.40;88.55
13033;BME280;6583;42.632;23.298;2023-10-19T06:52:52;70753.00;;;-146.40;88.21
13033;BME280;6583;42.632;23.298;2023-10-19T06:55:19;70744.91;;;-146.40;88.82
13033;BME280;6583;42.632;23.298;2023-10-19T06:57:48;70732.78;;;-146.40;89.42
13033;BME280;6583;42.632;23.298;2023-10-19T07:00:15;70728.72;;;-146.40;91.60
13033;BME280;6583;42.632;23.298;2023-10-19T07:02:47;70722.66;;;-146.40;92.30
13033;BME280;6583;42.632;23.298;2023-10-19T07:05:15;70718.59;;;-146.40;92.95
13033;BME280;6583;42.632;23.298;2023-10-19T07:07:47;70696.34;;;-146.40;93.60
13033;BME280;6583;42.632;23.298;2023-10-19T07:10:14;70702.41;;;-146.40;91.61
13033;BME280;6583;42.632;23.298;2023-10-19T07:12:48;70706.47;;;-146.40;90.15
13033;BME280;6583;42.632;23.298;2023-10-19T07:15:17;70706.47;;;-146.40;89.42
13033;BME280;6583;42.632;23.298;2023-10-19T07:17:46;70696.34;;;-146.40;87.74
13033;BME280;6583;42.632;23.298;2023-10-19T07:20:15;70694.34;;;-146.40;86.34
13033;BME280;6583;42.632;23.298;2023-10-19T07:22:50;70700.41;;;-146.40;85.45
13033;BME280;6583;42.632;23.298;2023-10-19T07:25:17;70712.53;;;-146.40;84.70
13033;BME280;6583;42.632;23.298;2023-10-19T07:27:46;70706.47;;;-146.40;84.00
13033;BME280;6583;42.632;23.298;2023-10-19T07:30:13;70698.38;;;-146.40;83.71
13033;BME280;6583;42.632;23.298;2023-10-19T07:32:48;70674.09;;;-146.40;83.65
13033;BME280;6583;42.632;23.298;2023-10-19T07:35:17;70663.97;;;-146.40;83.74
13033;BME280;6583;42.632;23.298;2023-10-19T07:37:44;70680.16;;;-146.40;83.55
13033;BME280;6583;42.632;23.298;2023-10-19T07:40:13;70668.03;;;-146.40;84.03
13033;BME280;6583;42.632;23.298;2023-10-19T07:42:39;70666.00;;;-146.40;86.08
13033;BME280;6583;42.632;23.298;2023-10-19T07:45:08;70661.97;;;-146.40;84.75
13033;BME280;6583;42.632;23.298;2023-10-19T07:47:37;70653.88;;;-146.40;83.35
13033;BME280;6583;42.632;23.298;2023-10-19T07:50:07;70651.84;;;-146.40;83.46
13033;BME280;6583;42.632;23.298;2023-10-19T07:52:38;70637.69;;;-146.40;83.82
13033;BME280;6583;42.632;23.298;2023-10-19T07:55:05;70635.66;;;-146.40;83.20
13033;BME280;6583;42.632;23.298;2023-10-19T07:57:33;70621.50;;;-146.40;83.55
13033;BME280;6583;42.632;23.298;2023-10-19T08:00:01;70621.50;;;-146.40;82.84
13033;BME280;6583;42.632;23.298;2023-10-19T08:02:29;70611.38;;;-146.40;81.62
13033;BME280;6583;42.632;23.298;2023-10-19T08:04:56;70611.38;;;-146.40;81.42
13033;BME280;6583;42.632;23.298;2023-10-19T08:07:24;70623.50;;;-146.40;81.33
13033;BME280;6583;42.632;23.298;2023-10-19T08:09:52;70619.47;;;-146.40;81.81
13033;BME280;6583;42.632;23.298;2023-10-19T08:12:20;70621.50;;;-146.40;81.89
13033;BME280;6583;42.632;23.298;2023-10-19T08:14:48;70607.31;;;-146.40;82.21
13033;BME280;6583;42.632;23.298;2023-10-19T08:17:14;70601.25;;;-146.40;81.63
13033;BME280;6583;42.632;23.298;2023-10-19T08:19:42;70593.16;;;-146.40;80.98
13033;BME280;6583;42.632;23.298;2023-10-19T08:22:08;70599.22;;;-146.40;81.36
13033;BME280;6583;42.632;23.298;2023-10-19T08:24:36;70595.19;;;-146.40;81.61
13033;BME280;6583;42.632;23.298;2023-10-19T08:27:03;70576.97;;;-146.40;81.96
13033;BME280;6583;42.632;23.298;2023-10-19T08:29:31;70570.91;;;-146.40;81.46
13033;BME280;6583;42.632;23.298;2023-10-19T08:31:57;70562.81;;;-146.40;80.93
13033;BME280;6583;42.632;23.298;2023-10-19T08:34:24;70564.84;;;-146.40;81.07
13033;BME280;6583;42.632;23.298;2023-10-19T08:36:51;70562.81;;;-146.40;81.00
13033;BME280;6583;42.632;23.298;2023-10-19T08:39:19;70550.69;;;-146.40;78.43
13033;BME280;6583;42.632;23.298;2023-10-19T08:41:47;70546.63;;;-146.40;78.55
13033;BME280;6583;42.632;23.298;2023-10-19T08:44:19;70554.72;;;-146.40;79.48
13033;BME280;6583;42.632;23.298;2023-10-19T08:46:46;70536.50;;;-146.40;80.18
13033;BME280;6583;42.632;23.298;2023-10-19T08:49:14;70542.59;;;-146.40;78.58
13033;BME280;6583;42.632;23.298;2023-10-19T08:51:44;70528.41;;;-146.40;78.17
13033;BME280;6583;42.632;23.298;2023-10-19T08:54:12;70522.34;;;-146.40;77.13
13033;BME280;6583;42.632;23.298;2023-10-19T08:56:39;70510.22;;;-146.40;76.12
13033;BME280;6583;42.632;23.298;2023-10-19T08:59:08;70510.22;;;-146.40;75.60
13033;BME280;6583;42.632;23.298;2023-10-19T09:01:36;70489.97;;;-146.40;74.97
13033;BME280;6583;42.632;23.298;2023-10-19T09:04:04;70481.88;;;-146.40;72.66
13033;BME280;6583;42.632;23.298;2023-10-19T09:06:34;70475.81;;;-146.40;71.57
13033;BME280;6583;42.632;23.298;2023-10-19T09:09:07;70451.53;;;-146.40;72.75
13033;BME280;6583;42.632;23.298;2023-10-19T09:11:34;70451.53;;;-146.40;71.78
13033;BME280;6583;42.632;23.298;2023-10-19T09:14:02;70437.38;;;-146.40;71.65
13033;BME280;6583;42.632;23.298;2023-10-19T09:16:32;70433.34;;;-146.40;71.43
13033;BME280;6583;42.632;23.298;2023-10-19T09:19:02;70425.25;;;-146.40;70.66
13033;BME280;6583;42.632;23.298;2023-10-19T09:21:29;70439.41;;;-146.40;71.77
13033;BME280;6583;42.632;23.298;2023-10-19T09:23:58;70433.34;;;-146.40;73.11
13033;BME280;6583;42.632;23.298;2023-10-19T09:26:25;70425.25;;;-146.40;75.17
13033;BME280;6583;42.632;23.298;2023-10-19T09:28:53;70429.28;;;-146.40;71.53
13033;BME280;6583;42.632;23.298;2023-10-19T09:31:20;70421.19;;;-146.40;71.16
13033;BME280;6583;42.632;23.298;2023-10-19T09:33:51;70405.00;;;-146.40;71.51
13033;BME280;6583;42.632;23.298;2023-10-19T09:36:18;70402.97;;;-146.40;70.54
13033;BME280;6583;42.632;23.298;2023-10-19T09:38:48;70390.84;;;-146.40;70.00
13033;BME280;6583;42.632;23.298;2023-10-19T09:41:17;70390.84;;;-146.40;70.32
13033;BME280;6583;42.632;23.298;2023-10-19T09:43:45;70384.78;;;-146.40;68.77
13033;BME280;6583;42.632;23.298;2023-10-19T09:46:14;70376.69;;;-146.40;70.37
13033;BME280;6583;42.632;23.298;2023-10-19T09:48:46;70370.63;;;-146.40;69.82
13033;BME280;6583;42.632;23.298;2023-10-19T09:51:17;70372.63;;;-146.40;68.66
13033;BME280;6583;42.632;23.298;2023-10-19T09:53:59;70354.44;;;-146.40;68.02
13033;BME280;6583;42.632;23.298;2023-10-19T09:56:32;70340.28;;;-146.40;69.52
13033;BME280;6583;42.632;23.298;2023-10-19T09:59:05;70322.06;;;-146.40;70.35
13033;BME280;6583;42.632;23.298;2023-10-19T10:02:06;70311.94;;;-146.40;68.39
13033;BME280;6583;42.632;23.298;2023-10-19T10:04:34;70320.03;;;-146.40;67.00
13033;BME280;6583;42.632;23.298;2023-10-19T10:07:04;70303.84;;;-146.40;66.22
13033;BME280;6583;42.632;23.298;2023-10-19T10:09:34;70297.78;;;-146.40;67.17
13033;BME280;6583;42.632;23.298;2023-10-19T10:12:18;70297.78;;;-146.40;67.28
13033;BME280;6583;42.632;23.298;2023-10-19T10:14:54;70283.63;;;-146.40;66.07
13033;BME280;6583;42.632;23.298;2023-10-19T10:17:22;70279.56;;;-146.40;66.39
13033;BME280;6583;42.632;23.298;2023-10-19T10:19:50;70275.53;;;-146.40;65.22
13033;BME280;6583;42.632;23.298;2023-10-19T10:22:21;70263.38;;;-146.40;63.29
13033;BME280;6583;42.632;23.298;2023-10-19T10:24:53;70249.22;;;-146.40;64.06
13033;BME280;6583;42.632;23.298;2023-10-19T10:27:20;70239.13;;;-146.40;64.23
13033;BME280;6583;42.632;23.298;2023-10-19T10:29:54;70218.88;;;-146.40;64.61
13033;BME280;6583;42.632;23.298;2023-10-19T10:32:44;70216.84;;;-146.40;61.92
13033;BME280;6583;42.632;23.298;2023-10-19T10:38:14;70196.63;;;-146.40;60.51
13033;BME280;6583;42.632;23.298;2023-10-19T10:40:44;70182.47;;;-146.40;60.26
13033;BME280;6583;42.632;23.298;2023-10-19T10:43:11;70186.50;;;-146.40;61.61
13033;BME280;6583;42.632;23.298;2023-10-19T10:45:38;70166.28;;;-146.40;60.75
13033;BME280;6583;42.632;23.298;2023-10-19T10:48:11;70156.16;;;-146.40;60.23
13033;BME280;6583;42.632;23.298;2023-10-19T10:50:38;70154.16;;;-146.40;60.00
13033;BME280;6583;42.632;23.298;2023-10-19T10:53:06;70146.06;;;-146.40;61.15
13033;BME280;6583;42.632;23.298;2023-10-19T10:55:34;70146.06;;;-146.40;60.15
13033;BME280;6583;42.632;23.298;2023-10-19T10:58:01;70137.97;;;-146.40;60.29
13033;BME280;6583;42.632;23.298;2023-10-19T11:00:27;70140.00;;;-146.40;60.58
13033;BME280;6583;42.632;23.298;2023-10-19T11:03:04;70137.97;;;-146.40;60.49
13033;BME280;6583;42.632;23.298;2023-10-19T11:05:32;70121.78;;;-146.40;59.94
13033;BME280;6583;42.632;23.298;2023-10-19T11:08:06;70115.72;;;-146.40;60.72
13033;BME280;6583;42.632;23.298;2023-10-19T11:10:35;70105.59;;;-146.40;61.10
13033;BME280;6583;42.632;23.298;2023-10-19T11:13:03;70091.44;;;-146.40;59.60
13033;BME280;6583;42.632;23.298;2023-10-19T11:15:31;70077.28;;;-146.40;60.14
13033;BME280;6583;42.632;23.298;2023-10-19T11:17:58;70061.09;;;-146.40;60.86
13033;BME280;6583;42.632;23.298;2023-10-19T11:20:26;70055.03;;;-146.40;60.22
13033;BME280;6583;42.632;23.298;2023-10-19T11:22:54;70067.16;;;-146.40;59.76
13033;BME280;6583;42.632;23.298;2023-10-19T11:25:24;70048.97;;;-146.40;61.00
13033;BME280;6583;42.632;23.298;2023-10-19T11:27:54;70038.84;;;-146.40;59.85
13033;BME280;6583;42.632;23.298;2023-10-19T11:30:25;70026.69;;;-146.40;58.48
13033;BME280;6583;42.632;23.298;2023-10-19T11:32:52;70014.56;;;-146.40;58.39
13033;BME280;6583;42.632;23.298;2023-10-19T11:35:23;70014.56;;;-146.40;58.92
13033;BME280;6583;42.632;23.298;2023-10-19T11:37:51;70004.44;;;-146.40;59.46
13033;BME280;6583;42.632;23.298;2023-10-19T11:40:20;69996.34;;;-146.40;58.75
13033;BME280;6583;42.632;23.298;2023-10-19T11:42:47;69988.25;;;-146.40;59.04
13033;BME280;6583;42.632;23.298;2023-10-19T11:45:15;69976.13;;;-146.40;58.56
13033;BME280;6583;42.632;23.298;2023-10-19T11:47:42;69974.09;;;-146.40;58.51
13033;BME280;6583;42.632;23.298;2023-10-19T11:50:10;69955.91;;;-146.40;59.10
13033;BME280;6583;42.632;23.298;2023-10-19T11:52:39;69953.88;;;-146.40;59.19
13033;BME280;6583;42.632;23.298;2023-10-19T11:55:07;69951.84;;;-146.40;58.58
13033;BME280;6583;42.632;23.298;2023-10-19T11:57:34;69947.81;;;-146.40;57.40
13033;BME280;6583;42.632;23.298;2023-10-19T12:00:01;69939.72;;;-146.40;57.62
13033;BME280;6583;42.632;23.298;2023-10-19T12:02:35;69935.66;;;-146.40;57.64
13033;BME280;6583;42.632;23.298;2023-10-19T12:05:04;69935.66;;;-146.40;57.30
13033;BME280;6583;42.632;23.298;2023-10-19T12:07:35;69925.56;;;-146.40;58.45
13033;BME280;6583;42.632;23.298;2023-10-19T12:10:02;69909.38;;;-146.40;57.82
13033;BME280;6583;42.632;23.298;2023-10-19T12:12:29;69907.34;;;-146.40;58.37
13033;BME280;6583;42.632;23.298;2023-10-19T12:14:56;69907.34;;;-146.40;57.93
13033;BME280;6583;42.632;23.298;2023-10-19T12:17:23;69899.25;;;-146.40;57.87
13033;BME280;6583;42.632;23.298;2023-10-19T12:19:53;69895.22;;;-146.40;58.28
13033;BME280;6583;42.632;23.298;2023-10-19T12:22:19;69897.25;;;-146.40;58.10
13033;BME280;6583;42.632;23.298;2023-10-19T12:24:47;69889.16;;;-146.40;60.35
13033;BME280;6583;42.632;23.298;2023-10-19T12:27:13;69887.13;;;-146.40;58.27
13033;BME280;6583;42.632;23.298;2023-10-19T12:29:40;69889.16;;;-146.40;57.36
13033;BME280;6583;42.632;23.298;2023-10-19T12:32:07;69874.97;;;-146.40;57.32
13033;BME280;6583;42.632;23.298;2023-10-19T12:34:34;69879.03;;;-146.40;57.81
13033;BME280;6583;42.632;23.298;2023-10-19T12:37:02;69874.97;;;-146.40;57.69
13033;BME280;6583;42.632;23.298;2023-10-19T12:39:29;69866.91;;;-146.40;57.63
13033;BME280;6583;42.632;23.298;2023-10-19T12:42:06;69856.78;;;-146.40;57.14
13033;BME280;6583;42.632;23.298;2023-10-19T12:44:34;69856.78;;;-146.40;57.47
13033;BME280;6583;42.632;23.298;2023-10-19T12:47:04;69852.72;;;-146.40;57.81
13033;BME280;6583;42.632;23.298;2023-10-19T12:49:34;69846.66;;;-146.40;56.50
13033;BME280;6583;42.632;23.298;2023-10-19T12:52:03;69834.53;;;-146.40;57.25